sensor_id;sensor_type;location;lat;lon;timestamp;P1;durP1;ratioP1;P2;durP2;ratioP2
8594;SDS011;4335;48.860;9.198;2023-08-06T00:02:21;5.63;;;4.70;;
8594;SDS011;4335;48.860;9.198;2023-08-06T00:04:51;5.53;;;5.03;;
8594;SDS011;4335;48.860;9.198;2023-08-06T00:07:18;5.40;;;4.90;;
8594;SDS011;4335;48.860;9.198;2023-08-06T00:09:44;5.70;;;5.07;;
8594;SDS011;4335;48.860;9.198;2023-08-06T00:12:16;4.90;;;4.40;;
8594;SDS011;4335;48.860;9.198;2023-08-06T00:14:44;5.10;;;4.60;;
8594;SDS011;4335;48.860;9.198;2023-08-06T00:17:11;5.40;;;4.90;;
8594;SDS011;4335;48.860;9.198;2023-08-06T00:19:43;5.43;;;4.90;;
8594;SDS011;4335;48.860;9.198;2023-08-06T00:22:13;5.30;;;4.80;;
8594;SDS011;4335;48.860;9.198;2023-08-06T00:24:48;6.80;;;5.00;;
8594;SDS011;4335;48.860;9.198;2023-08-06T00:27:18;5.93;;;5.37;;
8594;SDS011;4335;48.860;9.198;2023-08-06T00:29:46;6.53;;;4.97;;
8594;SDS011;4335;48.860;9.198;2023-08-06T00:32:12;7.70;;;6.90;;
8594;SDS011;4335;48.860;9.198;2023-08-06T00:34:39;6.27;;;5.27;;
8594;SDS011;4335;48.860;9.198;2023-08-06T00:37:05;6.47;;;5.03;;
8594;SDS011;4335;48.860;9.198;2023-08-06T00:39:32;7.27;;;6.57;;
8594;SDS011;4335;48.860;9.198;2023-08-06T00:41:59;7.30;;;6.60;;
8594;SDS011;4335;48.860;9.198;2023-08-06T00:44:29;8.63;;;7.00;;
8594;SDS011;4335;48.860;9.198;2023-08-06T00:46:56;7.53;;;6.73;;
8594;SDS011;4335;48.860;9.198;2023-08-06T00:49:29;6.97;;;6.27;;
8594;SDS011;4335;48.860;9.198;2023-08-06T00:51:56;8.27;;;6.60;;
8594;SDS011;4335;48.860;9.198;2023-08-06T00:54:23;8.00;;;7.20;;
8594;SDS011;4335;48.860;9.198;2023-08-06T00:56:50;7.00;;;6.30;;
8594;SDS011;4335;48.860;9.198;2023-08-06T00:59:27;7.30;;;6.60;;
8594;SDS011;4335;48.860;9.198;2023-08-06T01:01:54;8.50;;;6.53;;
8594;SDS011;4335;48.860;9.198;2023-08-06T01:04:24;6.83;;;6.23;;
8594;SDS011;4335;48.860;9.198;2023-08-06T01:06:56;6.60;;;5.90;;
8594;SDS011;4335;48.860;9.198;2023-08-06T01:09:39;8.07;;;5.90;;
8594;SDS011;4335;48.860;9.198;2023-08-06T01:12:13;6.30;;;5.70;;
8594;SDS011;4335;48.860;9.198;2023-08-06T01:14:53;6.43;;;5.83;;
8594;SDS011;4335;48.860;9.198;2023-08-06T01:17:32;9.03;;;6.73;;
8594;SDS011;4335;48.860;9.198;2023-08-06T01:20:04;6.80;;;6.07;;
8594;SDS011;4335;48.860;9.198;2023-08-06T01:22:35;6.77;;;6.07;;
8594;SDS011;4335;48.860;9.198;2023-08-06T01:25:02;6.60;;;6.00;;
8594;SDS011;4335;48.860;9.198;2023-08-06T01:27:37;6.47;;;5.87;;
8594;SDS011;4335;48.860;9.198;2023-08-06T01:30:16;6.77;;;6.17;;
8594;SDS011;4335;48.860;9.198;2023-08-06T01:32:49;7.37;;;6.67;;
8594;SDS011;4335;48.860;9.198;2023-08-06T01:35:19;6.83;;;6.20;;
8594;SDS011;4335;48.860;9.198;2023-08-06T01:37:57;8.57;;;6.50;;
8594;SDS011;4335;48.860;9.198;2023-08-06T01:40:24;8.23;;;6.67;;
8594;SDS011;4335;48.860;9.198;2023-08-06T01:42:52;7.20;;;6.27;;
8594;SDS011;4335;48.860;9.198;2023-08-06T01:45:19;8.23;;;7.40;;
8594;SDS011;4335;48.860;9.198;2023-08-06T01:47:53;8.13;;;7.03;;
8594;SDS011;4335;48.860;9.198;2023-08-06T01:50:20;8.50;;;7.50;;
8594;SDS011;4335;48.860;9.198;2023-08-06T01:52:50;8.73;;;7.30;;
8594;SDS011;4335;48.860;9.198;2023-08-06T01:55:23;9.60;;;8.03;;
8594;SDS011;4335;48.860;9.198;2023-08-06T01:57:50;7.97;;;6.60;;
8594;SDS011;4335;48.860;9.198;2023-08-06T02:00:16;6.87;;;6.17;;
8594;SDS011;4335;48.860;9.198;2023-08-06T02:02:43;6.53;;;5.90;;
8594;SDS011;4335;48.860;9.198;2023-08-06T02:05:15;5.20;;;4.70;;
8594;SDS011;4335;48.860;9.198;2023-08-06T02:07:42;6.63;;;5.03;;
8594;SDS011;4335;48.860;9.198;2023-08-06T02:10:09;4.93;;;4.43;;
8594;SDS011;4335;48.860;9.198;2023-08-06T02:12:36;5.03;;;4.40;;
8594;SDS011;4335;48.860;9.198;2023-08-06T02:15:06;4.07;;;3.73;;
8594;SDS011;4335;48.860;9.198;2023-08-06T02:17:36;6.00;;;3.90;;
8594;SDS011;4335;48.860;9.198;2023-08-06T02:20:03;4.67;;;3.77;;
8594;SDS011;4335;48.860;9.198;2023-08-06T02:22:31;3.50;;;3.20;;
8594;SDS011;4335;48.860;9.198;2023-08-06T02:24:58;3.23;;;2.93;;
8594;SDS011;4335;48.860;9.198;2023-08-06T02:27:25;3.00;;;2.70;;
8594;SDS011;4335;48.860;9.198;2023-08-06T02:29:58;4.17;;;2.80;;
8594;SDS011;4335;48.860;9.198;2023-08-06T02:32:25;3.20;;;2.60;;
8594;SDS011;4335;48.860;9.198;2023-08-06T02:34:52;3.50;;;3.00;;
8594;SDS011;4335;48.860;9.198;2023-08-06T02:37:18;2.83;;;2.63;;
8594;SDS011;4335;48.860;9.198;2023-08-06T02:39:45;2.80;;;2.60;;
8594;SDS011;4335;48.860;9.198;2023-08-06T02:42:15;3.30;;;2.63;;
8594;SDS011;4335;48.860;9.198;2023-08-06T02:44:41;5.87;;;2.60;;
8594;SDS011;4335;48.860;9.198;2023-08-06T02:47:09;2.77;;;2.57;;
8594;SDS011;4335;48.860;9.198;2023-08-06T02:49:38;2.67;;;2.47;;
8594;SDS011;4335;48.860;9.198;2023-08-06T02:52:05;2.80;;;2.37;;
8594;SDS011;4335;48.860;9.198;2023-08-06T02:54:32;3.33;;;2.97;;
8594;SDS011;4335;48.860;9.198;2023-08-06T02:57:02;2.77;;;2.57;;
8594;SDS011;4335;48.860;9.198;2023-08-06T02:59:30;2.90;;;2.63;;
8594;SDS011;4335;48.860;9.198;2023-08-06T03:02:00;3.50;;;2.60;;
8594;SDS011;4335;48.860;9.198;2023-08-06T03:04:36;3.40;;;2.50;;
8594;SDS011;4335;48.860;9.198;2023-08-06T03:07:03;2.63;;;2.30;;
8594;SDS011;4335;48.860;9.198;2023-08-06T03:09:30;2.97;;;2.63;;
8594;SDS011;4335;48.860;9.198;2023-08-06T03:11:57;4.37;;;2.40;;
8594;SDS011;4335;48.860;9.198;2023-08-06T03:14:33;3.30;;;3.00;;
8594;SDS011;4335;48.860;9.198;2023-08-06T03:17:00;4.93;;;2.70;;
8594;SDS011;4335;48.860;9.198;2023-08-06T03:19:29;3.77;;;3.10;;
8594;SDS011;4335;48.860;9.198;2023-08-06T03:21:59;4.30;;;3.40;;
8594;SDS011;4335;48.860;9.198;2023-08-06T03:24:25;3.73;;;2.87;;
8594;SDS011;4335;48.860;9.198;2023-08-06T03:26:52;3.30;;;3.00;;
8594;SDS011;4335;48.860;9.198;2023-08-06T03:29:18;4.63;;;3.10;;
8594;SDS011;4335;48.860;9.198;2023-08-06T03:31:51;3.50;;;3.20;;
8594;SDS011;4335;48.860;9.198;2023-08-06T03:34:18;3.37;;;3.07;;
8594;SDS011;4335;48.860;9.198;2023-08-06T03:36:45;3.47;;;2.83;;
8594;SDS011;4335;48.860;9.198;2023-08-06T03:39:14;3.87;;;3.20;;
8594;SDS011;4335;48.860;9.198;2023-08-06T03:41:40;3.87;;;3.33;;
8594;SDS011;4335;48.860;9.198;2023-08-06T03:44:07;4.43;;;2.73;;
8594;SDS011;4335;48.860;9.198;2023-08-06T03:46:43;3.80;;;3.40;;
8594;SDS011;4335;48.860;9.198;2023-08-06T03:49:09;3.33;;;2.77;;
8594;SDS011;4335;48.860;9.198;2023-08-06T03:51:45;3.83;;;3.10;;
8594;SDS011;4335;48.860;9.198;2023-08-06T03:54:19;3.10;;;2.70;;
8594;SDS011;4335;48.860;9.198;2023-08-06T03:56:45;3.27;;;2.97;;
8594;SDS011;4335;48.860;9.198;2023-08-06T03:59:15;3.53;;;2.87;;
8594;SDS011;4335;48.860;9.198;2023-08-06T04:01:44;4.20;;;2.80;;
8594;SDS011;4335;48.860;9.198;2023-08-06T04:04:11;3.73;;;2.70;;
8594;SDS011;4335;48.860;9.198;2023-08-06T04:06:38;3.33;;;2.57;;
8594;SDS011;4335;48.860;9.198;2023-08-06T04:09:04;3.13;;;2.83;;
8594;SDS011;4335;48.860;9.198;2023-08-06T04:11:38;2.97;;;2.30;;
8594;SDS011;4335;48.860;9.198;2023-08-06T04:14:04;2.60;;;2.40;;
8594;SDS011;4335;48.860;9.198;2023-08-06T04:16:37;3.40;;;2.50;;
8594;SDS011;4335;48.860;9.198;2023-08-06T04:19:04;4.20;;;2.70;;
8594;SDS011;4335;48.860;9.198;2023-08-06T04:21:30;3.17;;;2.87;;
8594;SDS011;4335;48.860;9.198;2023-08-06T04:23:57;2.67;;;2.47;;
8594;SDS011;4335;48.860;9.198;2023-08-06T04:26:24;2.50;;;2.30;;
8594;SDS011;4335;48.860;9.198;2023-08-06T04:28:51;3.60;;;2.40;;
8594;SDS011;4335;48.860;9.198;2023-08-06T04:31:18;5.60;;;2.03;;
8594;SDS011;4335;48.860;9.198;2023-08-06T04:33:44;3.97;;;2.50;;
8594;SDS011;4335;48.860;9.198;2023-08-06T04:36:11;2.50;;;2.30;;
8594;SDS011;4335;48.860;9.198;2023-08-06T04:38:38;3.07;;;2.13;;
8594;SDS011;4335;48.860;9.198;2023-08-06T04:41:15;2.20;;;1.93;;
8594;SDS011;4335;48.860;9.198;2023-08-06T04:43:43;4.40;;;2.50;;
8594;SDS011;4335;48.860;9.198;2023-08-06T04:46:10;4.03;;;2.23;;
8594;SDS011;4335;48.860;9.198;2023-08-06T04:48:37;5.37;;;1.97;;
8594;SDS011;4335;48.860;9.198;2023-08-06T04:51:03;3.33;;;2.23;;
8594;SDS011;4335;48.860;9.198;2023-08-06T04:53:30;2.40;;;2.13;;
8594;SDS011;4335;48.860;9.198;2023-08-06T04:55:57;2.37;;;2.03;;
8594;SDS011;4335;48.860;9.198;2023-08-06T04:58:23;2.90;;;1.93;;
8594;SDS011;4335;48.860;9.198;2023-08-06T05:00:52;2.37;;;2.00;;
8594;SDS011;4335;48.860;9.198;2023-08-06T05:03:23;2.70;;;1.90;;
8594;SDS011;4335;48.860;9.198;2023-08-06T05:05:49;4.33;;;2.10;;
8594;SDS011;4335;48.860;9.198;2023-08-06T05:08:16;2.97;;;2.20;;
8594;SDS011;4335;48.860;9.198;2023-08-06T05:10:43;2.93;;;2.07;;
8594;SDS011;4335;48.860;9.198;2023-08-06T05:13:22;2.50;;;2.30;;
8594;SDS011;4335;48.860;9.198;2023-08-06T05:15:53;5.20;;;2.30;;
8594;SDS011;4335;48.860;9.198;2023-08-06T05:18:20;2.60;;;2.03;;
8594;SDS011;4335;48.860;9.198;2023-08-06T05:20:53;4.03;;;1.90;;
8594;SDS011;4335;48.860;9.198;2023-08-06T05:23:20;4.03;;;2.00;;
8594;SDS011;4335;48.860;9.198;2023-08-06T05:25:47;3.57;;;2.03;;
8594;SDS011;4335;48.860;9.198;2023-08-06T05:28:17;3.20;;;2.40;;
8594;SDS011;4335;48.860;9.198;2023-08-06T05:30:43;2.57;;;2.20;;
8594;SDS011;4335;48.860;9.198;2023-08-06T05:33:13;2.63;;;2.20;;
8594;SDS011;4335;48.860;9.198;2023-08-06T05:35:40;2.63;;;2.10;;
8594;SDS011;4335;48.860;9.198;2023-08-06T05:38:16;3.20;;;1.97;;
8594;SDS011;4335;48.860;9.198;2023-08-06T05:40:46;2.47;;;2.20;;
8594;SDS011;4335;48.860;9.198;2023-08-06T05:43:14;2.20;;;1.77;;
8594;SDS011;4335;48.860;9.198;2023-08-06T05:45:43;2.93;;;1.80;;
8594;SDS011;4335;48.860;9.198;2023-08-06T05:48:11;5.17;;;2.00;;
8594;SDS011;4335;48.860;9.198;2023-08-06T05:50:40;2.77;;;2.10;;
8594;SDS011;4335;48.860;9.198;2023-08-06T05:53:07;2.70;;;1.83;;
8594;SDS011;4335;48.860;9.198;2023-08-06T05:55:40;2.53;;;1.90;;
8594;SDS011;4335;48.860;9.198;2023-08-06T05:58:10;4.23;;;2.13;;
8594;SDS011;4335;48.860;9.198;2023-08-06T06:00:36;3.20;;;1.40;;
8594;SDS011;4335;48.860;9.198;2023-08-06T06:03:03;2.30;;;1.73;;
8594;SDS011;4335;48.860;9.198;2023-08-06T06:05:32;2.47;;;1.60;;
8594;SDS011;4335;48.860;9.198;2023-08-06T06:08:08;3.03;;;1.50;;
8594;SDS011;4335;48.860;9.198;2023-08-06T06:10:35;1.80;;;1.53;;
8594;SDS011;4335;48.860;9.198;2023-08-06T06:13:05;1.50;;;1.40;;
8594;SDS011;4335;48.860;9.198;2023-08-06T06:15:32;2.13;;;1.70;;
8594;SDS011;4335;48.860;9.198;2023-08-06T06:17:59;2.00;;;1.57;;
8594;SDS011;4335;48.860;9.198;2023-08-06T06:20:25;2.83;;;1.80;;
8594;SDS011;4335;48.860;9.198;2023-08-06T06:22:55;2.50;;;1.53;;
8594;SDS011;4335;48.860;9.198;2023-08-06T06:25:24;2.53;;;1.43;;
8594;SDS011;4335;48.860;9.198;2023-08-06T06:27:51;1.93;;;1.10;;
8594;SDS011;4335;48.860;9.198;2023-08-06T06:30:23;4.23;;;2.43;;
8594;SDS011;4335;48.860;9.198;2023-08-06T06:32:50;2.03;;;1.13;;
8594;SDS011;4335;48.860;9.198;2023-08-06T06:35:26;1.00;;;0.90;;
8594;SDS011;4335;48.860;9.198;2023-08-06T06:37:53;2.17;;;1.17;;
8594;SDS011;4335;48.860;9.198;2023-08-06T06:40:19;1.90;;;1.10;;
8594;SDS011;4335;48.860;9.198;2023-08-06T06:42:49;1.93;;;1.20;;
8594;SDS011;4335;48.860;9.198;2023-08-06T06:45:15;1.23;;;1.13;;
8594;SDS011;4335;48.860;9.198;2023-08-06T06:47:43;1.13;;;1.03;;
8594;SDS011;4335;48.860;9.198;2023-08-06T06:50:12;0.80;;;0.80;;
8594;SDS011;4335;48.860;9.198;2023-08-06T06:52:39;2.23;;;1.20;;
8594;SDS011;4335;48.860;9.198;2023-08-06T06:55:06;1.47;;;1.33;;
8594;SDS011;4335;48.860;9.198;2023-08-06T06:57:33;1.30;;;1.20;;
8594;SDS011;4335;48.860;9.198;2023-08-06T07:00:00;1.20;;;1.10;;
8594;SDS011;4335;48.860;9.198;2023-08-06T07:02:26;1.60;;;1.50;;
8594;SDS011;4335;48.860;9.198;2023-08-06T07:05:06;1.63;;;1.23;;
8594;SDS011;4335;48.860;9.198;2023-08-06T07:07:34;1.47;;;1.17;;
8594;SDS011;4335;48.860;9.198;2023-08-06T07:10:05;0.90;;;0.87;;
8594;SDS011;4335;48.860;9.198;2023-08-06T07:12:32;1.10;;;1.00;;
8594;SDS011;4335;48.860;9.198;2023-08-06T07:15:05;1.83;;;0.77;;
8594;SDS011;4335;48.860;9.198;2023-08-06T07:17:32;1.67;;;1.00;;
8594;SDS011;4335;48.860;9.198;2023-08-06T07:19:59;2.60;;;0.90;;
8594;SDS011;4335;48.860;9.198;2023-08-06T07:22:27;1.03;;;0.93;;
8594;SDS011;4335;48.860;9.198;2023-08-06T07:24:56;1.17;;;1.00;;
8594;SDS011;4335;48.860;9.198;2023-08-06T07:27:23;1.37;;;0.83;;
8594;SDS011;4335;48.860;9.198;2023-08-06T07:29:53;2.43;;;1.00;;
8594;SDS011;4335;48.860;9.198;2023-08-06T07:32:29;1.20;;;1.10;;
8594;SDS011;4335;48.860;9.198;2023-08-06T07:34:59;2.03;;;1.23;;
8594;SDS011;4335;48.860;9.198;2023-08-06T07:37:28;1.63;;;1.00;;
8594;SDS011;4335;48.860;9.198;2023-08-06T07:40:01;1.43;;;0.90;;
8594;SDS011;4335;48.860;9.198;2023-08-06T07:42:32;2.40;;;1.00;;
8594;SDS011;4335;48.860;9.198;2023-08-06T07:44:59;1.23;;;1.10;;
8594;SDS011;4335;48.860;9.198;2023-08-06T07:47:35;2.00;;;1.20;;
8594;SDS011;4335;48.860;9.198;2023-08-06T07:50:02;1.20;;;1.10;;
8594;SDS011;4335;48.860;9.198;2023-08-06T07:52:29;1.63;;;0.90;;
8594;SDS011;4335;48.860;9.198;2023-08-06T07:54:56;1.00;;;0.90;;
8594;SDS011;4335;48.860;9.198;2023-08-06T07:57:29;2.00;;;0.93;;
8594;SDS011;4335;48.860;9.198;2023-08-06T08:00:02;2.03;;;0.90;;
8594;SDS011;4335;48.860;9.198;2023-08-06T08:02:30;0.83;;;0.80;;
8594;SDS011;4335;48.860;9.198;2023-08-06T08:04:56;1.13;;;0.90;;
8594;SDS011;4335;48.860;9.198;2023-08-06T08:07:26;1.93;;;1.00;;
8594;SDS011;4335;48.860;9.198;2023-08-06T08:10:02;1.00;;;0.90;;
8594;SDS011;4335;48.860;9.198;2023-08-06T08:12:30;2.00;;;1.53;;
8594;SDS011;4335;48.860;9.198;2023-08-06T08:14:57;1.00;;;0.90;;
8594;SDS011;4335;48.860;9.198;2023-08-06T08:17:26;1.50;;;1.40;;
8594;SDS011;4335;48.860;9.198;2023-08-06T08:19:56;0.93;;;0.80;;
8594;SDS011;4335;48.860;9.198;2023-08-06T08:22:25;0.93;;;0.90;;
8594;SDS011;4335;48.860;9.198;2023-08-06T08:24:52;2.40;;;0.80;;
8594;SDS011;4335;48.860;9.198;2023-08-06T08:27:19;1.10;;;1.00;;
8594;SDS011;4335;48.860;9.198;2023-08-06T08:29:52;0.93;;;0.80;;
8594;SDS011;4335;48.860;9.198;2023-08-06T08:32:19;2.20;;;1.30;;
8594;SDS011;4335;48.860;9.198;2023-08-06T08:34:45;1.53;;;1.30;;
8594;SDS011;4335;48.860;9.198;2023-08-06T08:37:15;2.07;;;0.90;;
8594;SDS011;4335;48.860;9.198;2023-08-06T08:39:42;1.07;;;0.97;;
8594;SDS011;4335;48.860;9.198;2023-08-06T08:42:08;1.63;;;1.10;;
8594;SDS011;4335;48.860;9.198;2023-08-06T08:44:42;0.73;;;0.73;;
8594;SDS011;4335;48.860;9.198;2023-08-06T08:47:10;1.30;;;1.20;;
8594;SDS011;4335;48.860;9.198;2023-08-06T08:49:40;0.80;;;0.80;;
8594;SDS011;4335;48.860;9.198;2023-08-06T08:52:07;1.43;;;1.23;;
8594;SDS011;4335;48.860;9.198;2023-08-06T08:54:38;2.20;;;0.73;;
8594;SDS011;4335;48.860;9.198;2023-08-06T08:57:08;1.43;;;0.90;;
8594;SDS011;4335;48.860;9.198;2023-08-06T08:59:38;1.27;;;0.77;;
8594;SDS011;4335;48.860;9.198;2023-08-06T09:02:05;1.80;;;0.80;;
8594;SDS011;4335;48.860;9.198;2023-08-06T09:04:36;1.03;;;0.80;;
8594;SDS011;4335;48.860;9.198;2023-08-06T09:07:04;1.30;;;0.90;;
8594;SDS011;4335;48.860;9.198;2023-08-06T09:09:34;2.07;;;0.90;;
8594;SDS011;4335;48.860;9.198;2023-08-06T09:12:18;0.83;;;0.70;;
8594;SDS011;4335;48.860;9.198;2023-08-06T09:14:44;0.83;;;0.80;;
8594;SDS011;4335;48.860;9.198;2023-08-06T09:17:12;1.13;;;1.00;;
8594;SDS011;4335;48.860;9.198;2023-08-06T09:19:48;1.17;;;1.07;;
8594;SDS011;4335;48.860;9.198;2023-08-06T09:22:18;1.50;;;1.10;;
8594;SDS011;4335;48.860;9.198;2023-08-06T09:24:45;1.43;;;1.00;;
8594;SDS011;4335;48.860;9.198;2023-08-06T09:27:14;0.80;;;0.80;;
8594;SDS011;4335;48.860;9.198;2023-08-06T09:29:42;0.67;;;0.67;;
8594;SDS011;4335;48.860;9.198;2023-08-06T09:32:10;0.70;;;0.70;;
8594;SDS011;4335;48.860;9.198;2023-08-06T09:34:38;0.90;;;0.90;;
8594;SDS011;4335;48.860;9.198;2023-08-06T09:37:06;0.80;;;0.80;;
8594;SDS011;4335;48.860;9.198;2023-08-06T09:39:41;1.13;;;1.00;;
8594;SDS011;4335;48.860;9.198;2023-08-06T09:42:11;1.80;;;1.23;;
8594;SDS011;4335;48.860;9.198;2023-08-06T09:44:41;0.93;;;0.80;;
8594;SDS011;4335;48.860;9.198;2023-08-06T09:47:07;0.87;;;0.80;;
8594;SDS011;4335;48.860;9.198;2023-08-06T09:49:42;0.97;;;0.83;;
8594;SDS011;4335;48.860;9.198;2023-08-06T09:52:16;0.87;;;0.87;;
8594;SDS011;4335;48.860;9.198;2023-08-06T09:54:44;0.50;;;0.50;;
8594;SDS011;4335;48.860;9.198;2023-08-06T09:57:12;0.70;;;0.70;;
8594;SDS011;4335;48.860;9.198;2023-08-06T09:59:49;0.90;;;0.80;;
8594;SDS011;4335;48.860;9.198;2023-08-06T10:02:18;1.10;;;1.00;;
8594;SDS011;4335;48.860;9.198;2023-08-06T10:04:51;0.80;;;0.80;;
8594;SDS011;4335;48.860;9.198;2023-08-06T10:07:18;2.67;;;1.57;;
8594;SDS011;4335;48.860;9.198;2023-08-06T10:09:45;1.27;;;0.90;;
8594;SDS011;4335;48.860;9.198;2023-08-06T10:12:12;1.00;;;0.90;;
8594;SDS011;4335;48.860;9.198;2023-08-06T10:14:39;0.70;;;0.70;;
8594;SDS011;4335;48.860;9.198;2023-08-06T10:17:08;1.07;;;0.83;;
8594;SDS011;4335;48.860;9.198;2023-08-06T10:19:38;0.87;;;0.60;;
8594;SDS011;4335;48.860;9.198;2023-08-06T10:22:19;1.00;;;0.90;;
8594;SDS011;4335;48.860;9.198;2023-08-06T10:24:52;1.10;;;1.00;;
8594;SDS011;4335;48.860;9.198;2023-08-06T10:27:20;0.83;;;0.60;;
8594;SDS011;4335;48.860;9.198;2023-08-06T10:29:51;0.60;;;0.60;;
8594;SDS011;4335;48.860;9.198;2023-08-06T10:35:30;2.20;;;1.03;;
8594;SDS011;4335;48.860;9.198;2023-08-06T10:37:59;0.67;;;0.67;;
8594;SDS011;4335;48.860;9.198;2023-08-06T10:40:29;1.60;;;0.80;;
8594;SDS011;4335;48.860;9.198;2023-08-06T10:43:00;0.70;;;0.70;;
8594;SDS011;4335;48.860;9.198;2023-08-06T10:45:30;0.60;;;0.60;;
8594;SDS011;4335;48.860;9.198;2023-08-06T10:48:00;0.60;;;0.60;;
8594;SDS011;4335;48.860;9.198;2023-08-06T10:50:27;0.60;;;0.60;;
8594;SDS011;4335;48.860;9.198;2023-08-06T10:52:55;0.70;;;0.70;;
8594;SDS011;4335;48.860;9.198;2023-08-06T10:55:29;1.60;;;0.90;;
8594;SDS011;4335;48.860;9.198;2023-08-06T10:57:56;1.73;;;0.90;;
8594;SDS011;4335;48.860;9.198;2023-08-06T11:00:27;1.53;;;0.80;;
8594;SDS011;4335;48.860;9.198;2023-08-06T11:02:56;1.07;;;0.90;;
8594;SDS011;4335;48.860;9.198;2023-08-06T11:05:26;1.30;;;1.10;;
8594;SDS011;4335;48.860;9.198;2023-08-06T11:07:53;1.23;;;1.13;;
8594;SDS011;4335;48.860;9.198;2023-08-06T11:10:20;1.17;;;0.90;;
8594;SDS011;4335;48.860;9.198;2023-08-06T11:12:49;1.23;;;1.00;;
8594;SDS011;4335;48.860;9.198;2023-08-06T11:15:16;1.20;;;1.10;;
8594;SDS011;4335;48.860;9.198;2023-08-06T11:17:45;2.67;;;1.70;;
8594;SDS011;4335;48.860;9.198;2023-08-06T11:20:22;1.53;;;1.10;;
8594;SDS011;4335;48.860;9.198;2023-08-06T11:22:50;0.80;;;0.80;;
8594;SDS011;4335;48.860;9.198;2023-08-06T11:25:19;1.40;;;1.07;;
8594;SDS011;4335;48.860;9.198;2023-08-06T11:27:47;1.17;;;1.07;;
8594;SDS011;4335;48.860;9.198;2023-08-06T11:30:23;1.57;;;1.10;;
8594;SDS011;4335;48.860;9.198;2023-08-06T11:32:53;1.17;;;0.90;;
8594;SDS011;4335;48.860;9.198;2023-08-06T11:35:19;1.20;;;1.10;;
8594;SDS011;4335;48.860;9.198;2023-08-06T11:37:46;2.20;;;1.40;;
8594;SDS011;4335;48.860;9.198;2023-08-06T11:40:14;1.97;;;1.77;;
8594;SDS011;4335;48.860;9.198;2023-08-06T11:42:42;1.20;;;1.10;;
8594;SDS011;4335;48.860;9.198;2023-08-06T11:45:09;1.23;;;1.10;;
8594;SDS011;4335;48.860;9.198;2023-08-06T11:47:37;1.53;;;1.30;;
8594;SDS011;4335;48.860;9.198;2023-08-06T11:50:05;2.80;;;1.30;;
8594;SDS011;4335;48.860;9.198;2023-08-06T11:52:32;2.70;;;1.20;;
8594;SDS011;4335;48.860;9.198;2023-08-06T11:55:05;2.37;;;1.33;;
8594;SDS011;4335;48.860;9.198;2023-08-06T11:57:35;2.00;;;1.63;;
8594;SDS011;4335;48.860;9.198;2023-08-06T12:00:07;1.30;;;1.20;;
8594;SDS011;4335;48.860;9.198;2023-08-06T12:02:39;1.63;;;1.30;;
8594;SDS011;4335;48.860;9.198;2023-08-06T12:05:10;2.90;;;1.50;;
8594;SDS011;4335;48.860;9.198;2023-08-06T12:07:37;1.73;;;1.30;;
8594;SDS011;4335;48.860;9.198;2023-08-06T12:10:05;2.57;;;1.60;;
8594;SDS011;4335;48.860;9.198;2023-08-06T12:12:32;2.87;;;1.43;;
8594;SDS011;4335;48.860;9.198;2023-08-06T12:14:59;3.43;;;1.93;;
8594;SDS011;4335;48.860;9.198;2023-08-06T12:17:27;3.20;;;2.17;;
8594;SDS011;4335;48.860;9.198;2023-08-06T12:20:06;2.37;;;1.50;;
8594;SDS011;4335;48.860;9.198;2023-08-06T12:22:34;2.43;;;1.53;;
8594;SDS011;4335;48.860;9.198;2023-08-06T12:25:10;2.00;;;1.77;;
8594;SDS011;4335;48.860;9.198;2023-08-06T12:27:38;3.57;;;2.37;;
8594;SDS011;4335;48.860;9.198;2023-08-06T12:30:06;2.93;;;2.33;;
8594;SDS011;4335;48.860;9.198;2023-08-06T12:32:34;2.90;;;2.07;;
8594;SDS011;4335;48.860;9.198;2023-08-06T12:35:04;3.47;;;2.17;;
8594;SDS011;4335;48.860;9.198;2023-08-06T12:37:32;2.77;;;1.60;;
8594;SDS011;4335;48.860;9.198;2023-08-06T12:39:59;2.37;;;1.70;;
8594;SDS011;4335;48.860;9.198;2023-08-06T12:42:29;3.00;;;1.80;;
8594;SDS011;4335;48.860;9.198;2023-08-06T12:44:56;3.03;;;2.00;;
8594;SDS011;4335;48.860;9.198;2023-08-06T12:47:26;3.07;;;1.67;;
8594;SDS011;4335;48.860;9.198;2023-08-06T12:49:56;2.80;;;2.00;;
8594;SDS011;4335;48.860;9.198;2023-08-06T12:52:26;1.80;;;1.50;;
8594;SDS011;4335;48.860;9.198;2023-08-06T12:54:52;1.70;;;1.50;;
8594;SDS011;4335;48.860;9.198;2023-08-06T12:57:19;4.30;;;1.90;;
8594;SDS011;4335;48.860;9.198;2023-08-06T12:59:46;2.70;;;1.67;;
8594;SDS011;4335;48.860;9.198;2023-08-06T13:02:13;1.60;;;1.40;;
8594;SDS011;4335;48.860;9.198;2023-08-06T13:04:43;1.60;;;1.50;;
8594;SDS011;4335;48.860;9.198;2023-08-06T13:07:12;2.00;;;1.60;;
8594;SDS011;4335;48.860;9.198;2023-08-06T13:09:42;2.20;;;1.40;;
8594;SDS011;4335;48.860;9.198;2023-08-06T13:12:09;1.97;;;1.77;;
8594;SDS011;4335;48.860;9.198;2023-08-06T13:14:35;1.93;;;1.50;;
8594;SDS011;4335;48.860;9.198;2023-08-06T13:17:05;1.43;;;1.30;;
8594;SDS011;4335;48.860;9.198;2023-08-06T13:19:32;3.00;;;1.70;;
8594;SDS011;4335;48.860;9.198;2023-08-06T13:22:00;1.40;;;1.30;;
8594;SDS011;4335;48.860;9.198;2023-08-06T13:24:29;2.00;;;1.43;;
8594;SDS011;4335;48.860;9.198;2023-08-06T13:26:56;1.70;;;1.17;;
8594;SDS011;4335;48.860;9.198;2023-08-06T13:29:24;2.27;;;1.50;;
8594;SDS011;4335;48.860;9.198;2023-08-06T13:31:51;3.63;;;2.30;;
8594;SDS011;4335;48.860;9.198;2023-08-06T13:34:21;2.43;;;1.93;;
8594;SDS011;4335;48.860;9.198;2023-08-06T13:36:51;2.50;;;1.27;;
8594;SDS011;4335;48.860;9.198;2023-08-06T13:39:17;2.73;;;1.47;;
8594;SDS011;4335;48.860;9.198;2023-08-06T13:41:48;1.30;;;0.93;;
8594;SDS011;4335;48.860;9.198;2023-08-06T13:44:15;2.87;;;1.00;;
8594;SDS011;4335;48.860;9.198;2023-08-06T13:46:42;2.73;;;1.20;;
8594;SDS011;4335;48.860;9.198;2023-08-06T13:49:08;1.50;;;1.33;;
8594;SDS011;4335;48.860;9.198;2023-08-06T13:51:37;1.10;;;1.00;;
8594;SDS011;4335;48.860;9.198;2023-08-06T13:54:07;1.53;;;1.40;;
8594;SDS011;4335;48.860;9.198;2023-08-06T13:56:36;2.97;;;1.80;;
8594;SDS011;4335;48.860;9.198;2023-08-06T13:59:07;1.47;;;1.13;;
8594;SDS011;4335;48.860;9.198;2023-08-06T14:01:33;1.83;;;1.30;;
8594;SDS011;4335;48.860;9.198;2023-08-06T14:04:03;1.93;;;1.10;;
8594;SDS011;4335;48.860;9.198;2023-08-06T14:06:29;2.20;;;1.87;;
8594;SDS011;4335;48.860;9.198;2023-08-06T14:08:56;2.10;;;1.67;;
8594;SDS011;4335;48.860;9.198;2023-08-06T14:11:32;1.27;;;1.17;;
8594;SDS011;4335;48.860;9.198;2023-08-06T14:13:58;2.90;;;1.37;;
8594;SDS011;4335;48.860;9.198;2023-08-06T14:16:28;1.30;;;1.20;;
8594;SDS011;4335;48.860;9.198;2023-08-06T14:18:55;2.90;;;1.47;;
8594;SDS011;4335;48.860;9.198;2023-08-06T14:21:24;1.70;;;1.40;;
8594;SDS011;4335;48.860;9.198;2023-08-06T14:23:54;1.43;;;1.13;;
8594;SDS011;4335;48.860;9.198;2023-08-06T14:26:21;1.20;;;1.10;;
8594;SDS011;4335;48.860;9.198;2023-08-06T14:28:48;1.27;;;1.10;;
8594;SDS011;4335;48.860;9.198;2023-08-06T14:31:22;2.70;;;1.10;;
8594;SDS011;4335;48.860;9.198;2023-08-06T14:33:52;3.77;;;2.27;;
8594;SDS011;4335;48.860;9.198;2023-08-06T14:36:22;2.77;;;1.70;;
8594;SDS011;4335;48.860;9.198;2023-08-06T14:39:00;2.10;;;1.80;;
8594;SDS011;4335;48.860;9.198;2023-08-06T14:41:29;1.93;;;1.40;;
8594;SDS011;4335;48.860;9.198;2023-08-06T14:43:59;2.30;;;1.50;;
8594;SDS011;4335;48.860;9.198;2023-08-06T14:46:25;2.27;;;1.43;;
8594;SDS011;4335;48.860;9.198;2023-08-06T14:48:53;1.30;;;1.10;;
8594;SDS011;4335;48.860;9.198;2023-08-06T14:51:19;1.47;;;1.37;;
8594;SDS011;4335;48.860;9.198;2023-08-06T14:53:46;3.83;;;1.50;;
8594;SDS011;4335;48.860;9.198;2023-08-06T14:56:22;4.80;;;2.40;;
8594;SDS011;4335;48.860;9.198;2023-08-06T14:58:51;3.60;;;2.90;;
8594;SDS011;4335;48.860;9.198;2023-08-06T15:01:18;1.50;;;1.40;;
8594;SDS011;4335;48.860;9.198;2023-08-06T15:03:45;2.60;;;1.57;;
8594;SDS011;4335;48.860;9.198;2023-08-06T15:06:16;2.30;;;1.50;;
8594;SDS011;4335;48.860;9.198;2023-08-06T15:08:43;2.43;;;1.90;;
8594;SDS011;4335;48.860;9.198;2023-08-06T15:11:14;3.37;;;1.50;;
8594;SDS011;4335;48.860;9.198;2023-08-06T15:13:41;4.90;;;1.30;;
8594;SDS011;4335;48.860;9.198;2023-08-06T15:16:08;1.90;;;1.60;;
8594;SDS011;4335;48.860;9.198;2023-08-06T15:18:43;2.57;;;1.97;;
8594;SDS011;4335;48.860;9.198;2023-08-06T15:21:14;3.07;;;1.33;;
8594;SDS011;4335;48.860;9.198;2023-08-06T15:23:41;3.00;;;1.80;;
8594;SDS011;4335;48.860;9.198;2023-08-06T15:26:07;1.33;;;1.20;;
8594;SDS011;4335;48.860;9.198;2023-08-06T15:28:40;1.40;;;1.20;;
8594;SDS011;4335;48.860;9.198;2023-08-06T15:31:07;1.30;;;1.20;;